sensor_id;sensor_type;location;lat;lon;timestamp;P1;durP1;ratioP1;P2;durP2;ratioP2
12445;SDS011;6287;50.984;7.022;2022-08-21T00:01:37;6.63;;;5.03;;
12445;SDS011;6287;50.984;7.022;2022-08-21T00:04:05;6.83;;;5.17;;
12445;SDS011;6287;50.984;7.022;2022-08-21T00:06:32;4.90;;;4.33;;
12445;SDS011;6287;50.984;7.022;2022-08-21T00:08:58;6.73;;;5.27;;
12445;SDS011;6287;50.984;7.022;2022-08-21T00:11:25;5.47;;;4.97;;
12445;SDS011;6287;50.984;7.022;2022-08-21T00:13:54;6.97;;;4.87;;
12445;SDS011;6287;50.984;7.022;2022-08-21T00:16:24;6.50;;;4.70;;
12445;SDS011;6287;50.984;7.022;2022-08-21T00:18:50;6.07;;;4.60;;
12445;SDS011;6287;50.984;7.022;2022-08-21T00:21:17;6.20;;;4.30;;
12445;SDS011;6287;50.984;7.022;2022-08-21T00:23:47;5.87;;;4.93;;
12445;SDS011;6287;50.984;7.022;2022-08-21T00:26:17;5.80;;;4.60;;
12445;SDS011;6287;50.984;7.022;2022-08-21T00:28:43;5.57;;;4.90;;
12445;SDS011;6287;50.984;7.022;2022-08-21T00:31:11;7.53;;;4.83;;
12445;SDS011;6287;50.984;7.022;2022-08-21T00:33:39;5.50;;;4.40;;
12445;SDS011;6287;50.984;7.022;2022-08-21T00:36:04;5.50;;;4.50;;
12445;SDS011;6287;50.984;7.022;2022-08-21T00:38:33;6.60;;;4.40;;
12445;SDS011;6287;50.984;7.022;2022-08-21T00:41:04;7.67;;;5.30;;
12445;SDS011;6287;50.984;7.022;2022-08-21T00:43:34;5.83;;;4.67;;
12445;SDS011;6287;50.984;7.022;2022-08-21T00:46:04;7.67;;;5.10;;
12445;SDS011;6287;50.984;7.022;2022-08-21T00:48:31;7.83;;;5.10;;
12445;SDS011;6287;50.984;7.022;2022-08-21T00:50:59;6.17;;;5.10;;
12445;SDS011;6287;50.984;7.022;2022-08-21T00:53:28;5.47;;;4.63;;
12445;SDS011;6287;50.984;7.022;2022-08-21T00:55:57;7.37;;;5.40;;
12445;SDS011;6287;50.984;7.022;2022-08-21T00:58:24;5.87;;;5.10;;
12445;SDS011;6287;50.984;7.022;2022-08-21T01:00:55;5.43;;;4.53;;
12445;SDS011;6287;50.984;7.022;2022-08-21T01:03:24;4.87;;;4.43;;
12445;SDS011;6287;50.984;7.022;2022-08-21T01:05:50;8.23;;;4.93;;
12445;SDS011;6287;50.984;7.022;2022-08-21T01:08:21;6.30;;;4.50;;
12445;SDS011;6287;50.984;7.022;2022-08-21T01:10:50;6.93;;;4.90;;
12445;SDS011;6287;50.984;7.022;2022-08-21T01:13:20;6.17;;;4.57;;
12445;SDS011;6287;50.984;7.022;2022-08-21T01:15:50;7.40;;;4.90;;
12445;SDS011;6287;50.984;7.022;2022-08-21T01:18:21;7.77;;;5.00;;
12445;SDS011;6287;50.984;7.022;2022-08-21T01:21:12;6.77;;;4.73;;
12445;SDS011;6287;50.984;7.022;2022-08-21T01:23:37;6.50;;;4.90;;
12445;SDS011;6287;50.984;7.022;2022-08-21T01:26:06;6.13;;;4.87;;
12445;SDS011;6287;50.984;7.022;2022-08-21T01:28:33;5.50;;;4.97;;
12445;SDS011;6287;50.984;7.022;2022-08-21T01:31:02;6.43;;;4.60;;
12445;SDS011;6287;50.984;7.022;2022-08-21T01:33:33;5.53;;;4.30;;
12445;SDS011;6287;50.984;7.022;2022-08-21T01:36:03;4.20;;;3.77;;
12445;SDS011;6287;50.984;7.022;2022-08-21T01:38:29;6.97;;;4.50;;
12445;SDS011;6287;50.984;7.022;2022-08-21T01:40:58;4.87;;;4.23;;
12445;SDS011;6287;50.984;7.022;2022-08-21T01:43:26;4.33;;;3.90;;
12445;SDS011;6287;50.984;7.022;2022-08-21T01:45:51;5.70;;;4.27;;
12445;SDS011;6287;50.984;7.022;2022-08-21T01:48:17;6.67;;;4.33;;
12445;SDS011;6287;50.984;7.022;2022-08-21T01:50:44;6.50;;;4.30;;
12445;SDS011;6287;50.984;7.022;2022-08-21T01:53:10;6.50;;;4.07;;
12445;SDS011;6287;50.984;7.022;2022-08-21T01:55:36;6.73;;;4.30;;
12445;SDS011;6287;50.984;7.022;2022-08-21T01:58:01;6.40;;;4.60;;
12445;SDS011;6287;50.984;7.022;2022-08-21T02:00:29;7.67;;;4.40;;
12445;SDS011;6287;50.984;7.022;2022-08-21T02:02:55;6.57;;;4.30;;
12445;SDS011;6287;50.984;7.022;2022-08-21T02:05:23;6.47;;;4.33;;
12445;SDS011;6287;50.984;7.022;2022-08-21T02:07:49;6.07;;;4.40;;
12445;SDS011;6287;50.984;7.022;2022-08-21T02:10:21;5.20;;;4.17;;
12445;SDS011;6287;50.984;7.022;2022-08-21T02:12:54;7.73;;;4.60;;
12445;SDS011;6287;50.984;7.022;2022-08-21T02:15:20;5.67;;;4.47;;
12445;SDS011;6287;50.984;7.022;2022-08-21T02:17:48;5.83;;;4.50;;
12445;SDS011;6287;50.984;7.022;2022-08-21T02:20:24;5.80;;;4.23;;
12445;SDS011;6287;50.984;7.022;2022-08-21T02:22:52;6.10;;;4.17;;
12445;SDS011;6287;50.984;7.022;2022-08-21T02:25:21;5.80;;;4.67;;
12445;SDS011;6287;50.984;7.022;2022-08-21T02:27:48;6.87;;;4.27;;
12445;SDS011;6287;50.984;7.022;2022-08-21T02:30:27;6.60;;;4.40;;
12445;SDS011;6287;50.984;7.022;2022-08-21T02:32:58;5.77;;;5.03;;
12445;SDS011;6287;50.984;7.022;2022-08-21T02:35:28;5.57;;;4.43;;
12445;SDS011;6287;50.984;7.022;2022-08-21T02:38:01;5.37;;;4.40;;
12445;SDS011;6287;50.984;7.022;2022-08-21T02:40:31;5.80;;;4.20;;
12445;SDS011;6287;50.984;7.022;2022-08-21T02:42:58;7.07;;;4.80;;
12445;SDS011;6287;50.984;7.022;2022-08-21T02:45:25;6.93;;;4.27;;
12445;SDS011;6287;50.984;7.022;2022-08-21T02:47:57;6.77;;;4.73;;
12445;SDS011;6287;50.984;7.022;2022-08-21T02:50:32;4.93;;;4.10;;
12445;SDS011;6287;50.984;7.022;2022-08-21T02:53:01;6.50;;;4.23;;
12445;SDS011;6287;50.984;7.022;2022-08-21T02:55:28;6.50;;;4.60;;
12445;SDS011;6287;50.984;7.022;2022-08-21T02:57:56;4.77;;;4.10;;
12445;SDS011;6287;50.984;7.022;2022-08-21T03:00:28;6.03;;;4.27;;
12445;SDS011;6287;50.984;7.022;2022-08-21T03:02:55;6.90;;;4.30;;
12445;SDS011;6287;50.984;7.022;2022-08-21T03:05:24;5.37;;;4.43;;
12445;SDS011;6287;50.984;7.022;2022-08-21T03:07:55;6.40;;;4.40;;
12445;SDS011;6287;50.984;7.022;2022-08-21T03:10:24;5.53;;;4.50;;
12445;SDS011;6287;50.984;7.022;2022-08-21T03:12:56;5.57;;;4.40;;
12445;SDS011;6287;50.984;7.022;2022-08-21T03:15:27;7.40;;;4.97;;
12445;SDS011;6287;50.984;7.022;2022-08-21T03:17:55;5.50;;;4.57;;
12445;SDS011;6287;50.984;7.022;2022-08-21T03:20:24;6.17;;;4.47;;
12445;SDS011;6287;50.984;7.022;2022-08-21T03:22:52;6.60;;;4.43;;
12445;SDS011;6287;50.984;7.022;2022-08-21T03:25:18;6.20;;;4.20;;
12445;SDS011;6287;50.984;7.022;2022-08-21T03:27:45;5.23;;;4.13;;
12445;SDS011;6287;50.984;7.022;2022-08-21T03:30:13;5.37;;;3.90;;
12445;SDS011;6287;50.984;7.022;2022-08-21T03:32:40;5.43;;;4.47;;
12445;SDS011;6287;50.984;7.022;2022-08-21T03:35:08;5.00;;;3.70;;
12445;SDS011;6287;50.984;7.022;2022-08-21T03:37:40;7.17;;;5.07;;
12445;SDS011;6287;50.984;7.022;2022-08-21T03:40:07;4.53;;;4.07;;
12445;SDS011;6287;50.984;7.022;2022-08-21T03:42:38;7.13;;;5.03;;
12445;SDS011;6287;50.984;7.022;2022-08-21T03:45:04;6.60;;;4.80;;
12445;SDS011;6287;50.984;7.022;2022-08-21T03:47:33;5.10;;;4.30;;
12445;SDS011;6287;50.984;7.022;2022-08-21T03:49:58;5.93;;;4.70;;
12445;SDS011;6287;50.984;7.022;2022-08-21T03:52:25;6.97;;;4.47;;
12445;SDS011;6287;50.984;7.022;2022-08-21T03:54:53;9.07;;;4.93;;
12445;SDS011;6287;50.984;7.022;2022-08-21T03:57:19;5.17;;;4.60;;
12445;SDS011;6287;50.984;7.022;2022-08-21T03:59:44;8.03;;;5.00;;
12445;SDS011;6287;50.984;7.022;2022-08-21T04:02:11;7.30;;;5.13;;
12445;SDS011;6287;50.984;7.022;2022-08-21T04:04:41;6.07;;;4.43;;
12445;SDS011;6287;50.984;7.022;2022-08-21T04:07:10;5.90;;;4.63;;
12445;SDS011;6287;50.984;7.022;2022-08-21T04:09:35;6.67;;;5.20;;
12445;SDS011;6287;50.984;7.022;2022-08-21T04:12:03;7.27;;;4.73;;
12445;SDS011;6287;50.984;7.022;2022-08-21T04:14:31;6.00;;;4.77;;
12445;SDS011;6287;50.984;7.022;2022-08-21T04:16:57;8.03;;;4.93;;
12445;SDS011;6287;50.984;7.022;2022-08-21T04:19:23;6.47;;;4.80;;
12445;SDS011;6287;50.984;7.022;2022-08-21T04:21:51;9.20;;;4.80;;
12445;SDS011;6287;50.984;7.022;2022-08-21T04:24:16;6.37;;;4.20;;
12445;SDS011;6287;50.984;7.022;2022-08-21T04:26:42;8.37;;;4.73;;
12445;SDS011;6287;50.984;7.022;2022-08-21T04:29:08;5.10;;;4.37;;
12445;SDS011;6287;50.984;7.022;2022-08-21T04:31:38;6.27;;;4.40;;
12445;SDS011;6287;50.984;7.022;2022-08-21T04:34:08;6.63;;;4.67;;
12445;SDS011;6287;50.984;7.022;2022-08-21T04:36:34;8.20;;;4.83;;
12445;SDS011;6287;50.984;7.022;2022-08-21T04:38:59;6.00;;;4.43;;
12445;SDS011;6287;50.984;7.022;2022-08-21T04:41:26;5.53;;;4.43;;
12445;SDS011;6287;50.984;7.022;2022-08-21T04:43:54;6.57;;;4.90;;
12445;SDS011;6287;50.984;7.022;2022-08-21T04:46:25;5.90;;;4.40;;
12445;SDS011;6287;50.984;7.022;2022-08-21T04:48:51;7.97;;;4.77;;
12445;SDS011;6287;50.984;7.022;2022-08-21T04:51:27;4.97;;;4.47;;
12445;SDS011;6287;50.984;7.022;2022-08-21T04:54:02;5.93;;;4.53;;
12445;SDS011;6287;50.984;7.022;2022-08-21T04:56:39;10.10;;;5.20;;
12445;SDS011;6287;50.984;7.022;2022-08-21T04:59:15;7.13;;;4.70;;
12445;SDS011;6287;50.984;7.022;2022-08-21T05:01:46;6.47;;;4.07;;
12445;SDS011;6287;50.984;7.022;2022-08-21T05:04:12;5.53;;;4.70;;
12445;SDS011;6287;50.984;7.022;2022-08-21T05:06:45;5.17;;;4.17;;
12445;SDS011;6287;50.984;7.022;2022-08-21T05:09:16;5.80;;;4.57;;
12445;SDS011;6287;50.984;7.022;2022-08-21T05:11:43;8.00;;;4.80;;
12445;SDS011;6287;50.984;7.022;2022-08-21T05:14:09;5.97;;;5.23;;
12445;SDS011;6287;50.984;7.022;2022-08-21T05:16:38;6.30;;;4.97;;
12445;SDS011;6287;50.984;7.022;2022-08-21T05:19:08;6.23;;;4.83;;
12445;SDS011;6287;50.984;7.022;2022-08-21T05:21:34;6.60;;;4.80;;
12445;SDS011;6287;50.984;7.022;2022-08-21T05:24:02;7.43;;;5.03;;
12445;SDS011;6287;50.984;7.022;2022-08-21T05:26:28;6.43;;;4.67;;
12445;SDS011;6287;50.984;7.022;2022-08-21T05:28:54;7.60;;;4.63;;
12445;SDS011;6287;50.984;7.022;2022-08-21T05:31:20;6.93;;;4.73;;
12445;SDS011;6287;50.984;7.022;2022-08-21T05:33:48;5.87;;;4.87;;
12445;SDS011;6287;50.984;7.022;2022-08-21T05:36:16;5.73;;;4.83;;
12445;SDS011;6287;50.984;7.022;2022-08-21T05:38:47;5.67;;;4.73;;
12445;SDS011;6287;50.984;7.022;2022-08-21T05:41:13;5.77;;;4.37;;
12445;SDS011;6287;50.984;7.022;2022-08-21T05:43:39;7.10;;;4.73;;
12445;SDS011;6287;50.984;7.022;2022-08-21T05:46:05;7.10;;;5.30;;
12445;SDS011;6287;50.984;7.022;2022-08-21T05:48:32;6.63;;;5.30;;
12445;SDS011;6287;50.984;7.022;2022-08-21T05:51:10;7.50;;;5.13;;
12445;SDS011;6287;50.984;7.022;2022-08-21T05:53:41;8.30;;;5.17;;
12445;SDS011;6287;50.984;7.022;2022-08-21T05:56:09;8.63;;;5.00;;
12445;SDS011;6287;50.984;7.022;2022-08-21T05:58:36;4.93;;;4.43;;
12445;SDS011;6287;50.984;7.022;2022-08-21T06:01:04;7.13;;;5.30;;
12445;SDS011;6287;50.984;7.022;2022-08-21T06:03:34;9.43;;;5.23;;
12445;SDS011;6287;50.984;7.022;2022-08-21T06:06:02;6.47;;;4.83;;
12445;SDS011;6287;50.984;7.022;2022-08-21T06:08:32;6.90;;;4.77;;
12445;SDS011;6287;50.984;7.022;2022-08-21T06:11:00;10.07;;;5.57;;
12445;SDS011;6287;50.984;7.022;2022-08-21T06:13:31;6.67;;;5.17;;
12445;SDS011;6287;50.984;7.022;2022-08-21T06:16:05;7.03;;;5.00;;
12445;SDS011;6287;50.984;7.022;2022-08-21T06:18:31;7.20;;;5.10;;
12445;SDS011;6287;50.984;7.022;2022-08-21T06:20:57;7.77;;;4.83;;
12445;SDS011;6287;50.984;7.022;2022-08-21T06:23:23;6.47;;;5.23;;
12445;SDS011;6287;50.984;7.022;2022-08-21T06:25:51;6.30;;;5.00;;
12445;SDS011;6287;50.984;7.022;2022-08-21T06:28:17;8.00;;;5.43;;
12445;SDS011;6287;50.984;7.022;2022-08-21T06:30:42;9.20;;;4.93;;
12445;SDS011;6287;50.984;7.022;2022-08-21T06:33:08;5.10;;;4.60;;
12445;SDS011;6287;50.984;7.022;2022-08-21T06:35:35;7.27;;;5.13;;
12445;SDS011;6287;50.984;7.022;2022-08-21T06:38:04;10.77;;;5.20;;
12445;SDS011;6287;50.984;7.022;2022-08-21T06:40:30;8.60;;;4.97;;
12445;SDS011;6287;50.984;7.022;2022-08-21T06:43:04;8.00;;;4.93;;
12445;SDS011;6287;50.984;7.022;2022-08-21T06:45:33;6.13;;;5.20;;
12445;SDS011;6287;50.984;7.022;2022-08-21T06:47:59;11.57;;;5.57;;
12445;SDS011;6287;50.984;7.022;2022-08-21T06:50:28;7.40;;;4.70;;
12445;SDS011;6287;50.984;7.022;2022-08-21T06:53:00;7.60;;;4.63;;
12445;SDS011;6287;50.984;7.022;2022-08-21T06:55:36;5.90;;;5.03;;
12445;SDS011;6287;50.984;7.022;2022-08-21T06:58:03;6.37;;;4.60;;
12445;SDS011;6287;50.984;7.022;2022-08-21T07:00:29;6.70;;;4.43;;
12445;SDS011;6287;50.984;7.022;2022-08-21T07:02:56;5.72;;;4.32;;
12445;SDS011;6287;50.984;7.022;2022-08-21T07:05:22;7.13;;;4.68;;
12445;SDS011;6287;50.984;7.022;2022-08-21T07:07:53;6.32;;;4.97;;
12445;SDS011;6287;50.984;7.022;2022-08-21T07:10:19;4.05;;;3.75;;
12445;SDS011;6287;50.984;7.022;2022-08-21T07:12:47;5.63;;;3.95;;
12445;SDS011;6287;50.984;7.022;2022-08-21T07:15:12;5.35;;;3.80;;
12445;SDS011;6287;50.984;7.022;2022-08-21T07:17:38;5.70;;;4.20;;
12445;SDS011;6287;50.984;7.022;2022-08-21T07:20:04;6.43;;;3.92;;
12445;SDS011;6287;50.984;7.022;2022-08-21T07:22:31;6.30;;;3.83;;
12445;SDS011;6287;50.984;7.022;2022-08-21T07:24:57;7.00;;;4.10;;
12445;SDS011;6287;50.984;7.022;2022-08-21T07:27:25;6.63;;;4.20;;
12445;SDS011;6287;50.984;7.022;2022-08-21T07:29:53;7.13;;;3.95;;
12445;SDS011;6287;50.984;7.022;2022-08-21T07:32:21;8.27;;;3.80;;
12445;SDS011;6287;50.984;7.022;2022-08-21T07:34:46;5.55;;;3.50;;
12445;SDS011;6287;50.984;7.022;2022-08-21T07:37:12;5.57;;;3.80;;
12445;SDS011;6287;50.984;7.022;2022-08-21T07:39:38;5.72;;;3.63;;
12445;SDS011;6287;50.984;7.022;2022-08-21T07:42:03;4.97;;;3.55;;
12445;SDS011;6287;50.984;7.022;2022-08-21T07:44:32;4.80;;;3.10;;
12445;SDS011;6287;50.984;7.022;2022-08-21T07:47:02;5.05;;;3.20;;
12445;SDS011;6287;50.984;7.022;2022-08-21T07:49:30;4.68;;;2.60;;
12445;SDS011;6287;50.984;7.022;2022-08-21T07:52:00;4.65;;;2.80;;
12445;SDS011;6287;50.984;7.022;2022-08-21T07:54:26;3.55;;;2.95;;
12445;SDS011;6287;50.984;7.022;2022-08-21T07:56:54;3.10;;;2.58;;
12445;SDS011;6287;50.984;7.022;2022-08-21T07:59:22;3.20;;;2.72;;
12445;SDS011;6287;50.984;7.022;2022-08-21T08:01:48;2.53;;;2.20;;
12445;SDS011;6287;50.984;7.022;2022-08-21T08:04:18;3.85;;;2.55;;
12445;SDS011;6287;50.984;7.022;2022-08-21T08:06:44;3.60;;;2.10;;
12445;SDS011;6287;50.984;7.022;2022-08-21T08:09:11;5.15;;;2.80;;
12445;SDS011;6287;50.984;7.022;2022-08-21T08:11:37;4.60;;;2.55;;
12445;SDS011;6287;50.984;7.022;2022-08-21T08:14:06;5.03;;;1.73;;
12445;SDS011;6287;50.984;7.022;2022-08-21T08:16:31;2.17;;;1.58;;
12445;SDS011;6287;50.984;7.022;2022-08-21T08:18:59;1.65;;;1.10;;
12445;SDS011;6287;50.984;7.022;2022-08-21T08:21:25;3.08;;;1.15;;
12445;SDS011;6287;50.984;7.022;2022-08-21T08:23:51;3.08;;;1.75;;
12445;SDS011;6287;50.984;7.022;2022-08-21T08:26:17;1.98;;;1.05;;
12445;SDS011;6287;50.984;7.022;2022-08-21T08:28:43;1.98;;;1.30;;
12445;SDS011;6287;50.984;7.022;2022-08-21T08:31:08;1.75;;;1.30;;
12445;SDS011;6287;50.984;7.022;2022-08-21T08:33:36;1.85;;;1.30;;
12445;SDS011;6287;50.984;7.022;2022-08-21T08:36:04;2.97;;;1.30;;
12445;SDS011;6287;50.984;7.022;2022-08-21T08:38:30;1.73;;;1.00;;
12445;SDS011;6287;50.984;7.022;2022-08-21T08:41:10;2.60;;;1.20;;
12445;SDS011;6287;50.984;7.022;2022-08-21T08:43:50;5.30;;;1.30;;
12445;SDS011;6287;50.984;7.022;2022-08-21T08:46:24;4.05;;;1.60;;
12445;SDS011;6287;50.984;7.022;2022-08-21T08:49:23;2.72;;;1.15;;
12445;SDS011;6287;50.984;7.022;2022-08-21T08:52:00;2.53;;;0.98;;
12445;SDS011;6287;50.984;7.022;2022-08-21T08:54:33;1.65;;;0.85;;
12445;SDS011;6287;50.984;7.022;2022-08-21T08:57:10;2.83;;;1.15;;
12445;SDS011;6287;50.984;7.022;2022-08-21T08:59:47;2.83;;;0.80;;
12445;SDS011;6287;50.984;7.022;2022-08-21T09:02:17;1.15;;;0.90;;
12445;SDS011;6287;50.984;7.022;2022-08-21T09:04:47;2.25;;;0.80;;
12445;SDS011;6287;50.984;7.022;2022-08-21T09:10:16;1.27;;;0.80;;
12445;SDS011;6287;50.984;7.022;2022-08-21T09:24:22;1.85;;;0.70;;
12445;SDS011;6287;50.984;7.022;2022-08-21T09:27:05;3.15;;;1.05;;
12445;SDS011;6287;50.984;7.022;2022-08-21T09:29:34;1.90;;;1.10;;
12445;SDS011;6287;50.984;7.022;2022-08-21T09:32:20;3.35;;;0.75;;
12445;SDS011;6287;50.984;7.022;2022-08-21T09:34:58;1.50;;;0.80;;
12445;SDS011;6287;50.984;7.022;2022-08-21T09:40:23;2.85;;;1.15;;
12445;SDS011;6287;50.984;7.022;2022-08-21T09:43:00;1.50;;;0.70;;
12445;SDS011;6287;50.984;7.022;2022-08-21T09:45:47;1.25;;;0.75;;
12445;SDS011;6287;50.984;7.022;2022-08-21T09:48:25;1.67;;;0.88;;
12445;SDS011;6287;50.984;7.022;2022-08-21T09:51:05;1.40;;;0.70;;
12445;SDS011;6287;50.984;7.022;2022-08-21T09:53:42;2.95;;;1.10;;
12445;SDS011;6287;50.984;7.022;2022-08-21T09:59:36;2.50;;;0.90;;
12445;SDS011;6287;50.984;7.022;2022-08-21T10:04:56;1.27;;;0.98;;
12445;SDS011;6287;50.984;7.022;2022-08-21T10:07:23;2.47;;;0.90;;
12445;SDS011;6287;50.984;7.022;2022-08-21T10:10:00;2.30;;;0.98;;
12445;SDS011;6287;50.984;7.022;2022-08-21T10:18:19;1.35;;;0.88;;
12445;SDS011;6287;50.984;7.022;2022-08-21T10:20:54;1.40;;;0.60;;
12445;SDS011;6287;50.984;7.022;2022-08-21T10:29:00;1.65;;;0.80;;
12445;SDS011;6287;50.984;7.022;2022-08-21T10:31:49;1.50;;;0.75;;
12445;SDS011;6287;50.984;7.022;2022-08-21T10:37:11;3.97;;;0.73;;
12445;SDS011;6287;50.984;7.022;2022-08-21T10:40:01;2.38;;;0.70;;
12445;SDS011;6287;50.984;7.022;2022-08-21T10:42:31;1.05;;;0.77;;
12445;SDS011;6287;50.984;7.022;2022-08-21T10:45:36;2.15;;;0.75;;
12445;SDS011;6287;50.984;7.022;2022-08-21T10:48:13;4.15;;;1.10;;
12445;SDS011;6287;50.984;7.022;2022-08-21T10:50:51;1.35;;;0.77;;
12445;SDS011;6287;50.984;7.022;2022-08-21T10:56:02;1.75;;;0.77;;
12445;SDS011;6287;50.984;7.022;2022-08-21T11:06:53;2.97;;;0.60;;
12445;SDS011;6287;50.984;7.022;2022-08-21T11:09:28;1.10;;;0.70;;
12445;SDS011;6287;50.984;7.022;2022-08-21T11:14:54;1.02;;;0.50;;
12445;SDS011;6287;50.984;7.022;2022-08-21T11:17:31;1.25;;;0.80;;
12445;SDS011;6287;50.984;7.022;2022-08-21T11:20:14;0.60;;;0.60;;
12445;SDS011;6287;50.984;7.022;2022-08-21T11:22:49;2.10;;;0.85;;
12445;SDS011;6287;50.984;7.022;2022-08-21T11:25:26;1.13;;;0.60;;
12445;SDS011;6287;50.984;7.022;2022-08-21T11:28:00;0.93;;;0.60;;
12445;SDS011;6287;50.984;7.022;2022-08-21T11:30:37;0.73;;;0.52;;
12445;SDS011;6287;50.984;7.022;2022-08-21T11:35:54;0.85;;;0.60;;
12445;SDS011;6287;50.984;7.022;2022-08-21T11:43:37;1.25;;;0.70;;
12445;SDS011;6287;50.984;7.022;2022-08-21T11:46:12;2.28;;;0.75;;
12445;SDS011;6287;50.984;7.022;2022-08-21T11:51:33;2.05;;;0.70;;
12445;SDS011;6287;50.984;7.022;2022-08-21T11:56:33;1.70;;;0.70;;
12445;SDS011;6287;50.984;7.022;2022-08-21T11:59:11;1.63;;;0.68;;
12445;SDS011;6287;50.984;7.022;2022-08-21T12:01:45;1.10;;;0.60;;
12445;SDS011;6287;50.984;7.022;2022-08-21T12:04:31;1.58;;;0.70;;
12445;SDS011;6287;50.984;7.022;2022-08-21T12:07:16;1.33;;;0.60;;
12445;SDS011;6287;50.984;7.022;2022-08-21T12:09:57;1.65;;;0.50;;
12445;SDS011;6287;50.984;7.022;2022-08-21T12:12:35;1.25;;;0.55;;
12445;SDS011;6287;50.984;7.022;2022-08-21T12:17:56;1.38;;;0.47;;
12445;SDS011;6287;50.984;7.022;2022-08-21T12:20:32;1.20;;;0.60;;
12445;SDS011;6287;50.984;7.022;2022-08-21T12:28:07;2.08;;;0.63;;
12445;SDS011;6287;50.984;7.022;2022-08-21T12:30:39;0.80;;;0.40;;
12445;SDS011;6287;50.984;7.022;2022-08-21T12:41:20;2.75;;;0.50;;
12445;SDS011;6287;50.984;7.022;2022-08-21T12:46:51;0.57;;;0.50;;
12445;SDS011;6287;50.984;7.022;2022-08-21T12:49:26;1.58;;;0.40;;
12445;SDS011;6287;50.984;7.022;2022-08-21T12:54:44;1.13;;;0.60;;
12445;SDS011;6287;50.984;7.022;2022-08-21T12:57:17;1.30;;;0.50;;
12445;SDS011;6287;50.984;7.022;2022-08-21T12:59:51;1.95;;;0.50;;
12445;SDS011;6287;50.984;7.022;2022-08-21T13:02:31;1.35;;;0.60;;
12445;SDS011;6287;50.984;7.022;2022-08-21T13:05:01;2.20;;;0.68;;
12445;SDS011;6287;50.984;7.022;2022-08-21T13:07:33;0.80;;;0.57;;
12445;SDS011;6287;50.984;7.022;2022-08-21T13:10:14;0.73;;;0.52;;
12445;SDS011;6287;50.984;7.022;2022-08-21T13:12:45;0.95;;;0.40;;
12445;SDS011;6287;50.984;7.022;2022-08-21T13:15:12;0.70;;;0.60;;
12445;SDS011;6287;50.984;7.022;2022-08-21T13:17:39;0.50;;;0.43;;
12445;SDS011;6287;50.984;7.022;2022-08-21T13:22:47;1.48;;;0.50;;
12445;SDS011;6287;50.984;7.022;2022-08-21T13:25:14;1.00;;;0.55;;
12445;SDS011;6287;50.984;7.022;2022-08-21T13:27:43;1.17;;;0.50;;
12445;SDS011;6287;50.984;7.022;2022-08-21T13:30:21;1.38;;;0.60;;
12445;SDS011;6287;50.984;7.022;2022-08-21T13:32:50;1.23;;;0.60;;
12445;SDS011;6287;50.984;7.022;2022-08-21T13:35:20;1.95;;;0.70;;
12445;SDS011;6287;50.984;7.022;2022-08-21T13:37:55;0.95;;;0.50;;
12445;SDS011;6287;50.984;7.022;2022-08-21T13:40:26;1.05;;;0.43;;
12445;SDS011;6287;50.984;7.022;2022-08-21T13:42:55;0.90;;;0.40;;
12445;SDS011;6287;50.984;7.022;2022-08-21T13:45:31;1.00;;;0.60;;
12445;SDS011;6287;50.984;7.022;2022-08-21T13:47:59;0.55;;;0.35;;
12445;SDS011;6287;50.984;7.022;2022-08-21T13:50:27;1.30;;;0.57;;
12445;SDS011;6287;50.984;7.022;2022-08-21T13:53:00;1.23;;;0.68;;
12445;SDS011;6287;50.984;7.022;2022-08-21T13:55:37;2.42;;;0.60;;
12445;SDS011;6287;50.984;7.022;2022-08-21T13:58:06;0.98;;;0.52;;
12445;SDS011;6287;50.984;7.022;2022-08-21T14:00:34;0.60;;;0.40;;
12445;SDS011;6287;50.984;7.022;2022-08-21T14:03:15;2.58;;;0.70;;
12445;SDS011;6287;50.984;7.022;2022-08-21T14:05:58;0.88;;;0.50;;
12445;SDS011;6287;50.984;7.022;2022-08-21T14:08:34;1.30;;;0.60;;
12445;SDS011;6287;50.984;7.022;2022-08-21T14:11:05;1.67;;;0.50;;
12445;SDS011;6287;50.984;7.022;2022-08-21T14:14:14;0.85;;;0.50;;
12445;SDS011;6287;50.984;7.022;2022-08-21T14:16:41;1.98;;;0.70;;
12445;SDS011;6287;50.984;7.022;2022-08-21T14:19:19;2.15;;;0.63;;
12445;SDS011;6287;50.984;7.022;2022-08-21T14:21:47;1.27;;;0.60;;
12445;SDS011;6287;50.984;7.022;2022-08-21T14:26:51;1.88;;;0.90;;
12445;SDS011;6287;50.984;7.022;2022-08-21T14:29:24;0.60;;;0.60;;
12445;SDS011;6287;50.984;7.022;2022-08-21T14:31:55;1.45;;;0.70;;
12445;SDS011;6287;50.984;7.022;2022-08-21T14:34:24;2.00;;;0.75;;
12445;SDS011;6287;50.984;7.022;2022-08-21T14:36:50;1.00;;;0.63;;
12445;SDS011;6287;50.984;7.022;2022-08-21T14:39:17;2.25;;;0.60;;
12445;SDS011;6287;50.984;7.022;2022-08-21T14:41:42;0.95;;;0.60;;
12445;SDS011;6287;50.984;7.022;2022-08-21T14:44:14;1.65;;;1.55;;
12445;SDS011;6287;50.984;7.022;2022-08-21T14:46:47;1.13;;;0.68;;
12445;SDS011;6287;50.984;7.022;2022-08-21T14:49:12;0.75;;;0.55;;
12445;SDS011;6287;50.984;7.022;2022-08-21T14:51:40;1.23;;;0.50;;
12445;SDS011;6287;50.984;7.022;2022-08-21T14:54:08;0.82;;;0.60;;
12445;SDS011;6287;50.984;7.022;2022-08-21T14:56:36;0.73;;;0.57;;
12445;SDS011;6287;50.984;7.022;2022-08-21T14:59:04;0.77;;;0.50;;
12445;SDS011;6287;50.984;7.022;2022-08-21T15:01:32;0.50;;;0.50;;
12445;SDS011;6287;50.984;7.022;2022-08-21T15:04:01;1.27;;;0.68;;
12445;SDS011;6287;50.984;7.022;2022-08-21T15:06:28;1.05;;;0.60;;
12445;SDS011;6287;50.984;7.022;2022-08-21T15:08:59;1.35;;;0.88;;
12445;SDS011;6287;50.984;7.022;2022-08-21T15:11:27;0.82;;;0.52;;
12445;SDS011;6287;50.984;7.022;2022-08-21T15:13:54;1.10;;;0.50;;
12445;SDS011;6287;50.984;7.022;2022-08-21T15:16:24;0.73;;;0.57;;
12445;SDS011;6287;50.984;7.022;2022-08-21T15:18:52;1.50;;;0.70;;
12445;SDS011;6287;50.984;7.022;2022-08-21T15:21:20;0.93;;;0.60;;
12445;SDS011;6287;50.984;7.022;2022-08-21T15:23:48;0.75;;;0.75;;
12445;SDS011;6287;50.984;7.022;2022-08-21T15:26:13;1.20;;;1.10;;
12445;SDS011;6287;50.984;7.022;2022-08-21T15:28:42;0.85;;;0.80;;
12445;SDS011;6287;50.984;7.022;2022-08-21T15:31:09;0.63;;;0.50;;
12445;SDS011;6287;50.984;7.022;2022-08-21T15:33:35;0.52;;;0.50;;
12445;SDS011;6287;50.984;7.022;2022-08-21T15:36:04;1.48;;;0.60;;
12445;SDS011;6287;50.984;7.022;2022-08-21T15:38:30;1.38;;;0.60;;
12445;SDS011;6287;50.984;7.022;2022-08-21T15:40:58;1.10;;;0.52;;
12445;SDS011;6287;50.984;7.022;2022-08-21T15:43:26;1.80;;;0.57;;
12445;SDS011;6287;50.984;7.022;2022-08-21T15:45:56;1.05;;;0.68;;
12445;SDS011;6287;50.984;7.022;2022-08-21T15:48:24;1.20;;;0.40;;
12445;SDS011;6287;50.984;7.022;2022-08-21T15:50:52;0.55;;;0.55;;
12445;SDS011;6287;50.984;7.022;2022-08-21T15:53:21;1.40;;;1.30;;
12445;SDS011;6287;50.984;7.022;2022-08-21T15:55:46;0.60;;;0.50;;
12445;SDS011;6287;50.984;7.022;2022-08-21T15:58:13;1.08;;;0.93;;
12445;SDS011;6287;50.984;7.022;2022-08-21T16:00:40;2.47;;;0.70;;
12445;SDS011;6287;50.984;7.022;2022-08-21T16:03:09;1.40;;;0.50;;
12445;SDS011;6287;50.984;7.022;2022-08-21T16:05:43;0.63;;;0.50;;
12445;SDS011;6287;50.984;7.022;2022-08-21T16:08:09;1.33;;;0.70;;
12445;SDS011;6287;50.984;7.022;2022-08-21T16:10:37;1.10;;;0.68;;
12445;SDS011;6287;50.984;7.022;2022-08-21T16:13:04;0.40;;;0.40;;
12445;SDS011;6287;50.984;7.022;2022-08-21T16:15:39;0.50;;;0.50;;
12445;SDS011;6287;50.984;7.022;2022-08-21T16:18:05;1.52;;;0.52;;
12445;SDS011;6287;50.984;7.022;2022-08-21T16:20:34;1.65;;;0.70;;
12445;SDS011;6287;50.984;7.022;2022-08-21T16:22:59;0.82;;;0.60;;
12445;SDS011;6287;50.984;7.022;2022-08-21T16:25:25;0.70;;;0.63;;
12445;SDS011;6287;50.984;7.022;2022-08-21T16:27:55;0.60;;;0.57;;
12445;SDS011;6287;50.984;7.022;2022-08-21T16:30:26;0.80;;;0.50;;
12445;SDS011;6287;50.984;7.022;2022-08-21T16:32:55;0.73;;;0.50;;
12445;SDS011;6287;50.984;7.022;2022-08-21T16:35:27;0.57;;;0.57;;
12445;SDS011;6287;50.984;7.022;2022-08-21T16:37:57;0.68;;;0.63;;
12445;SDS011;6287;50.984;7.022;2022-08-21T16:40:25;0.55;;;0.50;;
12445;SDS011;6287;50.984;7.022;2022-08-21T16:42:56;0.50;;;0.50;;
12445;SDS011;6287;50.984;7.022;2022-08-21T16:45:21;0.63;;;0.50;;
12445;SDS011;6287;50.984;7.022;2022-08-21T16:47:47;0.68;;;0.50;;
12445;SDS011;6287;50.984;7.022;2022-08-21T16:50:19;2.17;;;0.80;;